createdAt,value
2023-10-09T00:00:35.257Z,63.57
2023-10-09T00:21:14.149Z,63.31
2023-10-09T00:29:35.910Z,63.38
2023-10-09T00:41:10.625Z,63.64
2023-10-09T00:46:47.203Z,63.17
2023-10-09T00:49:17.261Z,63.24
2023-10-09T00:51:57.523Z,63.37
2023-10-09T00:54:28.906Z,63.59
2023-10-09T00:57:07.981Z,63.49
2023-10-09T00:59:35.546Z,63.53
2023-10-09T01:02:08.153Z,63.37
2023-10-09T01:04:42.607Z,63.45
2023-10-09T01:07:26.762Z,63.48
2023-10-09T01:27:50.532Z,63.57
2023-10-09T01:39:28.017Z,63.66
2023-10-09T01:44:55.468Z,64.41
2023-10-09T01:47:54.284Z,64.30
2023-10-09T01:53:09.206Z,63.69
2023-10-09T01:58:24.603Z,63.75
2023-10-09T02:00:56.365Z,63.79
2023-10-09T02:03:27.180Z,63.54
2023-10-09T02:06:04.588Z,63.41
2023-10-09T02:08:31.643Z,63.46
2023-10-09T02:10:58.308Z,63.64
2023-10-09T02:13:31.225Z,63.48
2023-10-09T02:16:14.571Z,63.76
2023-10-09T02:18:54.192Z,63.70
2023-10-09T02:30:30.961Z,64.09
2023-10-09T02:45:11.930Z,64.15
2023-10-09T02:47:40.956Z,63.95
2023-10-09T02:56:13.983Z,64.06
2023-10-09T03:04:42.912Z,63.90
2023-10-09T03:07:14.830Z,64.06
2023-10-09T03:09:42.046Z,63.84
2023-10-09T03:15:00.163Z,63.63
2023-10-09T03:17:27.426Z,63.75
2023-10-09T03:19:55.851Z,63.98
2023-10-09T03:22:22.888Z,63.76
2023-10-09T03:24:51.553Z,64.01
2023-10-09T03:27:20.356Z,63.73
2023-10-09T03:29:51.154Z,63.50
2023-10-09T03:32:18.765Z,63.29
2023-10-09T03:34:45.331Z,62.94
2023-10-09T03:37:23.749Z,62.79
2023-10-09T03:39:52.744Z,62.83
2023-10-09T03:42:24.213Z,62.66
2023-10-09T03:44:54.937Z,62.96
2023-10-09T03:47:26.066Z,62.90
2023-10-09T03:49:55.326Z,62.96
2023-10-09T03:52:27.226Z,63.12
2023-10-09T03:54:54.579Z,63.25
2023-10-09T03:57:21.847Z,63.37
2023-10-09T03:59:48.662Z,63.73
2023-10-09T04:02:16.137Z,63.33
2023-10-09T04:04:48.418Z,63.51
2023-10-09T04:07:18.022Z,63.86
2023-10-09T04:09:49.356Z,63.76
2023-10-09T04:12:26.124Z,63.39
2023-10-09T04:14:56.632Z,63.23
2023-10-09T04:17:30.840Z,63.62
2023-10-09T04:20:16.681Z,63.48
2023-10-09T04:22:52.959Z,63.61
2023-10-09T04:25:42.008Z,63.85
2023-10-09T04:28:15.561Z,64.19
2023-10-09T04:30:44.714Z,64.22
2023-10-09T04:33:29.828Z,64.31
2023-10-09T04:36:15.530Z,63.87
2023-10-09T04:38:57.216Z,64.08
2023-10-09T04:44:52.815Z,64.60
2023-10-09T04:47:37.029Z,64.31
2023-10-09T04:50:12.966Z,64.10
2023-10-09T04:52:39.829Z,64.12
2023-10-09T04:55:10.751Z,64.19
2023-10-09T04:57:47.201Z,63.96
2023-10-09T05:00:27.414Z,63.89
2023-10-09T05:06:22.152Z,64.23
2023-10-09T05:14:46.760Z,64.49
2023-10-09T05:17:17.216Z,64.26
2023-10-09T05:19:56.138Z,64.61
2023-10-09T05:25:41.437Z,64.34
2023-10-09T05:28:26.675Z,64.50
2023-10-09T05:31:09.502Z,64.14
2023-10-09T05:33:38.344Z,64.46
2023-10-09T05:36:15.874Z,64.46
2023-10-09T05:38:47.474Z,64.46
2023-10-09T05:41:48.838Z,64.55
2023-10-09T05:44:34.449Z,64.76
2023-10-09T05:47:21.511Z,64.74
2023-10-09T05:49:48.452Z,64.84
2023-10-09T05:52:34.013Z,65.15
2023-10-09T05:55:19.292Z,64.99
2023-10-09T05:58:04.732Z,65.16
2023-10-09T06:00:49.983Z,65.31
2023-10-09T06:03:24.966Z,65.65
2023-10-09T06:06:03.233Z,65.42
2023-10-09T06:08:42.557Z,65.70
2023-10-09T06:11:28.391Z,65.92
2023-10-09T06:14:10.720Z,65.92
2023-10-09T06:16:40.217Z,65.99
2023-10-09T06:19:27.754Z,65.99
2023-10-09T06:22:13.454Z,66.00
2023-10-09T06:24:43.602Z,66.04
2023-10-09T06:27:25.314Z,65.85
2023-10-09T06:29:52.375Z,65.48
2023-10-09T06:32:20.260Z,65.58
2023-10-09T06:35:15.453Z,65.37
2023-10-09T06:38:01.993Z,65.30
2023-10-09T06:40:37.607Z,64.90
2023-10-09T06:43:18.024Z,65.02
2023-10-09T06:45:55.502Z,64.98
2023-10-09T06:48:40.781Z,65.02
2023-10-09T06:51:28.028Z,64.82
2023-10-09T06:53:55.349Z,64.70
2023-10-09T06:56:45.123Z,64.59
2023-10-09T06:59:22.686Z,64.67
2023-10-09T07:02:12.429Z,64.59
2023-10-09T07:04:39.268Z,64.78
2023-10-09T07:07:36.789Z,64.40
2023-10-09T07:10:22.426Z,64.11
2023-10-09T07:12:55.981Z,63.78
2023-10-09T07:15:42.555Z,63.78
2023-10-09T07:18:24.393Z,63.11
2023-10-09T07:21:00.695Z,63.00
2023-10-09T07:23:34.323Z,62.83
2023-10-09T07:26:19.348Z,62.22
2023-10-09T07:28:49.448Z,62.28
2023-10-09T07:31:25.838Z,62.34
2023-10-09T07:33:59.651Z,61.66
2023-10-09T07:36:35.976Z,60.57
2023-10-09T07:39:14.986Z,59.94
2023-10-09T07:41:46.515Z,59.83
2023-10-09T07:44:20.562Z,59.56
2023-10-09T07:49:55.418Z,58.10
2023-10-09T07:52:23.043Z,57.52
2023-10-09T07:54:54.375Z,57.55
2023-10-09T07:57:27.185Z,57.03
2023-10-09T08:00:02.400Z,55.76
2023-10-09T08:02:40.093Z,55.94
2023-10-09T08:05:08.624Z,55.52
2023-10-09T08:08:04.270Z,55.82
2023-10-09T08:10:24.200Z,55.22
2023-10-09T08:12:51.040Z,54.69
2023-10-09T08:15:21.143Z,54.04
2023-10-09T08:18:11.849Z,53.26
2023-10-09T08:20:57.224Z,50.20
2023-10-09T08:23:49.342Z,48.63
2023-10-09T08:26:30.364Z,48.63
2023-10-09T08:29:16.222Z,47.79
2023-10-09T08:31:46.722Z,47.21
2023-10-09T08:36:55.992Z,45.82
2023-10-09T08:39:30.961Z,47.14
2023-10-09T08:42:06.234Z,46.41
2023-10-09T08:44:34.973Z,46.10
2023-10-09T08:47:01.830Z,44.72
2023-10-09T08:49:29.146Z,43.40
2023-10-09T08:51:56.768Z,43.52
2023-10-09T08:54:23.447Z,43.85
2023-10-09T08:56:52.925Z,43.52
2023-10-09T08:59:21.348Z,43.78
2023-10-09T09:01:50.976Z,43.22
2023-10-09T09:04:39.713Z,43.16
2023-10-09T09:07:08.448Z,43.08
2023-10-09T09:09:35.716Z,43.08
2023-10-09T09:12:02.528Z,44.03
2023-10-09T09:14:40.003Z,44.44
2023-10-09T09:17:12.226Z,44.65
2023-10-09T09:19:39.346Z,43.36
2023-10-09T09:22:13.842Z,43.18
2023-10-09T09:24:40.829Z,43.63
2023-10-09T09:27:19.891Z,43.96
2023-10-09T09:29:54.646Z,43.98
2023-10-09T09:32:31.604Z,42.87
2023-10-09T09:34:58.398Z,42.57
2023-10-09T09:37:29.763Z,42.74
2023-10-09T09:39:58.619Z,42.82
2023-10-09T09:42:28.632Z,42.46
2023-10-09T09:47:56.065Z,41.77
2023-10-09T09:50:27.797Z,42.25
2023-10-09T09:52:55.013Z,42.15
2023-10-09T09:55:30.681Z,41.83
2023-10-09T09:57:58.642Z,42.35
2023-10-09T10:03:03.246Z,42.72
2023-10-09T10:05:31.193Z,42.36
2023-10-09T10:07:59.012Z,42.40
2023-10-09T10:10:35.460Z,42.54
2023-10-09T10:13:02.692Z,42.46
2023-10-09T10:15:47.291Z,42.55
2023-10-09T10:18:20.706Z,42.18
2023-10-09T10:23:09.233Z,42.09
2023-10-09T10:25:42.439Z,41.74
2023-10-09T10:28:29.974Z,41.93
2023-10-09T10:30:59.108Z,40.80
2023-10-09T10:33:25.956Z,41.11
2023-10-09T10:35:52.793Z,41.70
2023-10-09T10:41:24.899Z,41.21
2023-10-09T10:43:55.953Z,41.11
2023-10-09T10:46:39.944Z,41.14
2023-10-09T10:49:21.950Z,40.58
2023-10-09T10:51:51.127Z,40.80
2023-10-09T10:54:34.569Z,40.87
2023-10-09T11:10:33.618Z,40.17
2023-10-09T11:13:09.766Z,40.67
2023-10-09T11:15:47.899Z,40.29
2023-10-09T11:18:21.711Z,40.23
2023-10-09T11:21:05.608Z,40.20
2023-10-09T11:23:35.647Z,39.66
2023-10-09T11:26:27.414Z,39.93
2023-10-09T11:29:14.976Z,40.08
2023-10-09T11:40:53.616Z,38.57
2023-10-09T11:56:56.546Z,36.42
2023-10-09T11:59:25.055Z,36.30
2023-10-09T12:01:54.369Z,35.82
2023-10-09T12:04:21.317Z,36.02
2023-10-09T12:06:50.634Z,36.00
2023-10-09T12:09:19.146Z,36.39
2023-10-09T12:12:03.090Z,36.52
2023-10-09T12:14:38.862Z,36.38
2023-10-09T12:17:08.836Z,37.27
2023-10-09T12:19:36.463Z,37.09
2023-10-09T12:22:06.831Z,37.42
2023-10-09T12:24:34.381Z,36.80
2023-10-09T12:27:01.859Z,37.26
2023-10-09T12:29:31.721Z,37.64
2023-10-09T12:45:48.880Z,38.07
2023-10-09T12:57:22.248Z,38.83
2023-10-09T13:06:11.281Z,39.66
2023-10-09T14:43:34.690Z,46.32
2023-10-09T14:46:01.736Z,46.23
2023-10-09T14:48:38.100Z,45.82
2023-10-09T14:56:35.363Z,45.73
2023-10-09T14:59:09.049Z,46.01
2023-10-09T15:01:36.107Z,46.09
2023-10-09T15:04:03.223Z,44.76
2023-10-09T15:06:31.602Z,44.29
2023-10-09T15:11:42.211Z,44.60
2023-10-09T15:14:26.467Z,44.79
2023-10-09T15:22:26.501Z,44.67
2023-10-09T15:30:15.529Z,43.82
2023-10-09T15:32:47.848Z,43.18
2023-10-09T15:35:22.491Z,43.63
2023-10-09T15:37:49.602Z,43.51
2023-10-09T15:40:16.897Z,43.78
2023-10-09T15:42:44.454Z,43.81
2023-10-09T15:45:14.867Z,44.29
2023-10-09T15:47:41.769Z,44.23
2023-10-09T15:52:55.428Z,44.72
2023-10-09T15:55:27.068Z,44.82
2023-10-09T16:00:41.275Z,44.62
2023-10-09T16:03:12.064Z,44.39
